sensor_id;sensor_type;location;lat;lon;timestamp;temperature;humidity
59651;DHT22;45954;49.768;8.636;2022-07-23T00:00:21;23.80;90.00
59651;DHT22;45954;49.768;8.636;2022-07-23T00:02:48;23.60;89.90
59651;DHT22;45954;49.768;8.636;2022-07-23T00:05:14;23.40;90.30
59651;DHT22;45954;49.768;8.636;2022-07-23T00:07:40;22.90;91.70
59651;DHT22;45954;49.768;8.636;2022-07-23T00:10:07;22.70;91.70
59651;DHT22;45954;49.768;8.636;2022-07-23T00:12:33;22.40;92.00
59651;DHT22;45954;49.768;8.636;2022-07-23T00:14:59;22.20;91.60
59651;DHT22;45954;49.768;8.636;2022-07-23T00:17:25;22.20;92.00
59651;DHT22;45954;49.768;8.636;2022-07-23T00:19:51;22.30;92.10
59651;DHT22;45954;49.768;8.636;2022-07-23T00:22:19;22.30;92.40
59651;DHT22;45954;49.768;8.636;2022-07-23T00:24:45;22.40;92.50
59651;DHT22;45954;49.768;8.636;2022-07-23T00:27:11;22.40;92.80
59651;DHT22;45954;49.768;8.636;2022-07-23T00:29:36;22.50;92.80
59651;DHT22;45954;49.768;8.636;2022-07-23T00:32:02;22.90;93.80
59651;DHT22;45954;49.768;8.636;2022-07-23T00:34:29;22.60;95.50
59651;DHT22;45954;49.768;8.636;2022-07-23T00:36:54;22.90;95.20
59651;DHT22;45954;49.768;8.636;2022-07-23T00:39:20;23.00;95.70
59651;DHT22;45954;49.768;8.636;2022-07-23T00:41:48;23.30;95.10
59651;DHT22;45954;49.768;8.636;2022-07-23T00:44:25;23.40;95.10
59651;DHT22;45954;49.768;8.636;2022-07-23T00:46:57;22.90;94.50
59651;DHT22;45954;49.768;8.636;2022-07-23T00:49:27;22.60;96.00
59651;DHT22;45954;49.768;8.636;2022-07-23T00:51:55;22.50;96.00
59651;DHT22;45954;49.768;8.636;2022-07-23T00:54:24;22.10;97.10
59651;DHT22;45954;49.768;8.636;2022-07-23T00:56:51;21.90;96.70
59651;DHT22;45954;49.768;8.636;2022-07-23T00:59:17;22.00;97.00
59651;DHT22;45954;49.768;8.636;2022-07-23T01:01:43;22.20;96.00
59651;DHT22;45954;49.768;8.636;2022-07-23T01:04:10;21.30;97.00
59651;DHT22;45954;49.768;8.636;2022-07-23T01:06:38;21.20;97.00
59651;DHT22;45954;49.768;8.636;2022-07-23T01:09:07;21.40;96.70
59651;DHT22;45954;49.768;8.636;2022-07-23T01:11:35;21.50;96.30
59651;DHT22;45954;49.768;8.636;2022-07-23T01:14:13;21.80;96.00
59651;DHT22;45954;49.768;8.636;2022-07-23T01:16:43;21.70;96.10
59651;DHT22;45954;49.768;8.636;2022-07-23T01:19:10;22.00;95.70
59651;DHT22;45954;49.768;8.636;2022-07-23T01:21:45;22.10;95.30
59651;DHT22;45954;49.768;8.636;2022-07-23T01:24:14;22.20;95.60
59651;DHT22;45954;49.768;8.636;2022-07-23T01:26:46;22.30;95.20
59651;DHT22;45954;49.768;8.636;2022-07-23T01:29:12;22.30;95.30
59651;DHT22;45954;49.768;8.636;2022-07-23T01:31:39;22.40;95.00
59651;DHT22;45954;49.768;8.636;2022-07-23T01:34:05;22.50;95.10
59651;DHT22;45954;49.768;8.636;2022-07-23T01:36:33;22.40;95.20
59651;DHT22;45954;49.768;8.636;2022-07-23T01:39:00;22.00;97.20
59651;DHT22;45954;49.768;8.636;2022-07-23T01:41:25;22.30;96.70
59651;DHT22;45954;49.768;8.636;2022-07-23T01:43:51;22.60;95.70
59651;DHT22;45954;49.768;8.636;2022-07-23T01:46:17;22.90;95.60
59651;DHT22;45954;49.768;8.636;2022-07-23T01:48:43;23.00;95.20
59651;DHT22;45954;49.768;8.636;2022-07-23T01:51:09;23.00;95.30
59651;DHT22;45954;49.768;8.636;2022-07-23T01:53:35;22.70;95.80
59651;DHT22;45954;49.768;8.636;2022-07-23T01:56:01;22.20;96.90
59651;DHT22;45954;49.768;8.636;2022-07-23T01:58:28;22.00;97.40
59651;DHT22;45954;49.768;8.636;2022-07-23T02:00:55;21.90;97.10
59651;DHT22;45954;49.768;8.636;2022-07-23T02:03:22;22.20;96.50
59651;DHT22;45954;49.768;8.636;2022-07-23T02:05:48;22.10;96.80
59651;DHT22;45954;49.768;8.636;2022-07-23T02:08:14;22.10;97.30
59651;DHT22;45954;49.768;8.636;2022-07-23T02:10:40;21.90;96.90
59651;DHT22;45954;49.768;8.636;2022-07-23T02:13:06;21.60;97.30
59651;DHT22;45954;49.768;8.636;2022-07-23T02:15:32;21.70;97.40
59651;DHT22;45954;49.768;8.636;2022-07-23T02:17:59;21.80;96.50
59651;DHT22;45954;49.768;8.636;2022-07-23T02:20:25;22.00;96.60
59651;DHT22;45954;49.768;8.636;2022-07-23T02:22:51;22.30;96.30
59651;DHT22;45954;49.768;8.636;2022-07-23T02:25:17;22.30;96.40
59651;DHT22;45954;49.768;8.636;2022-07-23T02:27:43;22.20;96.40
59651;DHT22;45954;49.768;8.636;2022-07-23T02:30:09;22.30;96.30
59651;DHT22;45954;49.768;8.636;2022-07-23T02:32:36;22.60;96.10
59651;DHT22;45954;49.768;8.636;2022-07-23T02:35:03;22.50;96.00
59651;DHT22;45954;49.768;8.636;2022-07-23T02:37:30;22.60;95.80
59651;DHT22;45954;49.768;8.636;2022-07-23T02:39:55;22.70;95.60
59651;DHT22;45954;49.768;8.636;2022-07-23T02:42:21;22.90;95.50
59651;DHT22;45954;49.768;8.636;2022-07-23T02:44:50;22.90;95.40
59651;DHT22;45954;49.768;8.636;2022-07-23T02:47:16;22.30;96.90
59651;DHT22;45954;49.768;8.636;2022-07-23T02:49:42;22.40;97.20
59651;DHT22;45954;49.768;8.636;2022-07-23T02:52:08;22.40;98.10
59651;DHT22;45954;49.768;8.636;2022-07-23T02:54:36;22.40;98.80
59651;DHT22;45954;49.768;8.636;2022-07-23T02:57:03;22.50;98.70
59651;DHT22;45954;49.768;8.636;2022-07-23T02:59:30;22.20;98.20
59651;DHT22;45954;49.768;8.636;2022-07-23T03:01:56;21.10;99.90
59651;DHT22;45954;49.768;8.636;2022-07-23T03:04:22;20.60;99.90
59651;DHT22;45954;49.768;8.636;2022-07-23T03:06:48;20.70;99.90
59651;DHT22;45954;49.768;8.636;2022-07-23T03:09:14;20.80;99.90
59651;DHT22;45954;49.768;8.636;2022-07-23T03:11:40;20.90;99.90
59651;DHT22;45954;49.768;8.636;2022-07-23T03:14:06;21.20;99.80
59651;DHT22;45954;49.768;8.636;2022-07-23T03:16:33;21.60;99.90
59651;DHT22;45954;49.768;8.636;2022-07-23T03:18:58;21.80;99.60
59651;DHT22;45954;49.768;8.636;2022-07-23T03:21:24;21.80;99.30
59651;DHT22;45954;49.768;8.636;2022-07-23T03:23:51;21.60;99.90
59651;DHT22;45954;49.768;8.636;2022-07-23T03:26:16;21.70;99.00
59651;DHT22;45954;49.768;8.636;2022-07-23T03:28:42;21.40;99.90
59651;DHT22;45954;49.768;8.636;2022-07-23T03:31:08;21.30;99.90
59651;DHT22;45954;49.768;8.636;2022-07-23T03:33:34;21.40;99.90
59651;DHT22;45954;49.768;8.636;2022-07-23T03:36:00;21.60;99.90
59651;DHT22;45954;49.768;8.636;2022-07-23T03:38:26;21.30;99.90
59651;DHT22;45954;49.768;8.636;2022-07-23T03:40:52;20.80;99.90
59651;DHT22;45954;49.768;8.636;2022-07-23T03:43:18;20.70;99.90
59651;DHT22;45954;49.768;8.636;2022-07-23T03:45:43;20.80;99.90
59651;DHT22;45954;49.768;8.636;2022-07-23T03:48:09;21.20;99.90
59651;DHT22;45954;49.768;8.636;2022-07-23T03:50:35;21.50;99.90
59651;DHT22;45954;49.768;8.636;2022-07-23T03:53:03;21.40;99.90
59651;DHT22;45954;49.768;8.636;2022-07-23T03:55:29;21.20;99.90
59651;DHT22;45954;49.768;8.636;2022-07-23T03:57:54;20.90;99.90
59651;DHT22;45954;49.768;8.636;2022-07-23T04:00:20;20.80;99.90
59651;DHT22;45954;49.768;8.636;2022-07-23T04:02:46;20.90;99.90
59651;DHT22;45954;49.768;8.636;2022-07-23T04:05:12;21.40;99.90
59651;DHT22;45954;49.768;8.636;2022-07-23T04:07:38;21.30;99.90
59651;DHT22;45954;49.768;8.636;2022-07-23T04:10:04;21.70;99.90
59651;DHT22;45954;49.768;8.636;2022-07-23T04:12:30;21.70;99.90
59651;DHT22;45954;49.768;8.636;2022-07-23T04:14:56;21.80;99.80
59651;DHT22;45954;49.768;8.636;2022-07-23T04:17:22;21.70;99.50
59651;DHT22;45954;49.768;8.636;2022-07-23T04:19:48;21.10;99.90
59651;DHT22;45954;49.768;8.636;2022-07-23T04:22:14;21.30;99.90
59651;DHT22;45954;49.768;8.636;2022-07-23T04:24:40;21.10;99.90
59651;DHT22;45954;49.768;8.636;2022-07-23T04:27:06;20.80;99.90
59651;DHT22;45954;49.768;8.636;2022-07-23T04:29:32;21.00;99.90
59651;DHT22;45954;49.768;8.636;2022-07-23T04:31:58;21.00;99.90
59651;DHT22;45954;49.768;8.636;2022-07-23T04:34:24;20.90;99.90
59651;DHT22;45954;49.768;8.636;2022-07-23T04:36:52;21.20;99.90
59651;DHT22;45954;49.768;8.636;2022-07-23T04:39:19;21.50;99.90
59651;DHT22;45954;49.768;8.636;2022-07-23T04:41:45;21.40;99.90
59651;DHT22;45954;49.768;8.636;2022-07-23T04:44:11;21.30;99.90
59651;DHT22;45954;49.768;8.636;2022-07-23T04:46:36;21.40;99.50
59651;DHT22;45954;49.768;8.636;2022-07-23T04:49:02;21.10;99.90
59651;DHT22;45954;49.768;8.636;2022-07-23T04:51:28;21.00;99.90
59651;DHT22;45954;49.768;8.636;2022-07-23T04:53:55;21.00;99.90
59651;DHT22;45954;49.768;8.636;2022-07-23T04:56:21;21.30;99.90
59651;DHT22;45954;49.768;8.636;2022-07-23T04:58:47;21.50;99.20
59651;DHT22;45954;49.768;8.636;2022-07-23T05:01:13;21.40;99.40
59651;DHT22;45954;49.768;8.636;2022-07-23T05:03:39;21.10;99.90
59651;DHT22;45954;49.768;8.636;2022-07-23T05:06:05;21.10;99.90
59651;DHT22;45954;49.768;8.636;2022-07-23T05:08:31;21.30;99.90
59651;DHT22;45954;49.768;8.636;2022-07-23T05:10:57;21.50;99.90
59651;DHT22;45954;49.768;8.636;2022-07-23T05:13:23;21.40;99.90
59651;DHT22;45954;49.768;8.636;2022-07-23T05:15:49;21.60;99.90
59651;DHT22;45954;49.768;8.636;2022-07-23T05:18:15;21.50;99.90
59651;DHT22;45954;49.768;8.636;2022-07-23T05:20:41;21.50;99.90
59651;DHT22;45954;49.768;8.636;2022-07-23T05:23:07;21.50;99.90
59651;DHT22;45954;49.768;8.636;2022-07-23T05:25:33;21.60;99.90
59651;DHT22;45954;49.768;8.636;2022-07-23T05:27:59;21.40;99.90
59651;DHT22;45954;49.768;8.636;2022-07-23T05:30:25;21.60;99.90
59651;DHT22;45954;49.768;8.636;2022-07-23T05:32:51;21.90;99.90
59651;DHT22;45954;49.768;8.636;2022-07-23T05:35:17;22.00;99.90
59651;DHT22;45954;49.768;8.636;2022-07-23T05:37:43;21.90;99.90
59651;DHT22;45954;49.768;8.636;2022-07-23T05:40:10;21.40;99.90
59651;DHT22;45954;49.768;8.636;2022-07-23T05:42:38;21.10;99.90
59651;DHT22;45954;49.768;8.636;2022-07-23T05:45:05;21.10;99.90
59651;DHT22;45954;49.768;8.636;2022-07-23T05:47:48;21.30;99.90
59651;DHT22;45954;49.768;8.636;2022-07-23T05:50:15;21.40;99.90
59651;DHT22;45954;49.768;8.636;2022-07-23T05:52:43;21.50;99.90
59651;DHT22;45954;49.768;8.636;2022-07-23T05:55:10;21.50;99.90
59651;DHT22;45954;49.768;8.636;2022-07-23T05:57:38;21.30;99.90
59651;DHT22;45954;49.768;8.636;2022-07-23T06:00:06;21.30;99.90
59651;DHT22;45954;49.768;8.636;2022-07-23T06:02:32;21.20;99.90
59651;DHT22;45954;49.768;8.636;2022-07-23T06:04:58;21.10;99.90
59651;DHT22;45954;49.768;8.636;2022-07-23T06:07:24;21.00;99.90
59651;DHT22;45954;49.768;8.636;2022-07-23T06:09:50;20.90;99.90
59651;DHT22;45954;49.768;8.636;2022-07-23T06:12:17;20.80;99.90
59651;DHT22;45954;49.768;8.636;2022-07-23T06:14:43;20.80;99.90
59651;DHT22;45954;49.768;8.636;2022-07-23T06:17:09;20.80;99.90
59651;DHT22;45954;49.768;8.636;2022-07-23T06:19:35;20.70;99.90
59651;DHT22;45954;49.768;8.636;2022-07-23T06:22:00;20.70;99.90
59651;DHT22;45954;49.768;8.636;2022-07-23T06:24:26;20.60;99.90
59651;DHT22;45954;49.768;8.636;2022-07-23T06:26:52;20.70;99.90
59651;DHT22;45954;49.768;8.636;2022-07-23T06:29:18;20.60;99.90
59651;DHT22;45954;49.768;8.636;2022-07-23T06:31:45;20.60;99.90
59651;DHT22;45954;49.768;8.636;2022-07-23T06:34:11;20.80;99.90
59651;DHT22;45954;49.768;8.636;2022-07-23T06:36:36;21.10;99.90
59651;DHT22;45954;49.768;8.636;2022-07-23T06:39:02;21.20;99.90
59651;DHT22;45954;49.768;8.636;2022-07-23T06:41:28;21.20;99.90
59651;DHT22;45954;49.768;8.636;2022-07-23T06:43:54;21.40;99.70
59651;DHT22;45954;49.768;8.636;2022-07-23T06:46:20;21.60;99.10
59651;DHT22;45954;49.768;8.636;2022-07-23T06:48:47;21.50;99.10
59651;DHT22;45954;49.768;8.636;2022-07-23T06:51:13;21.80;98.20
59651;DHT22;45954;49.768;8.636;2022-07-23T06:53:39;21.80;98.10
59651;DHT22;45954;49.768;8.636;2022-07-23T06:56:04;22.00;98.10
59651;DHT22;45954;49.768;8.636;2022-07-23T06:58:30;22.20;97.60
59651;DHT22;45954;49.768;8.636;2022-07-23T07:00:56;22.10;97.60
59651;DHT22;45954;49.768;8.636;2022-07-23T07:03:22;22.10;97.60
59651;DHT22;45954;49.768;8.636;2022-07-23T07:05:48;22.00;98.00
59651;DHT22;45954;49.768;8.636;2022-07-23T07:08:15;21.70;98.40
59651;DHT22;45954;49.768;8.636;2022-07-23T07:10:41;21.80;98.30
59651;DHT22;45954;49.768;8.636;2022-07-23T07:13:07;21.90;98.30
59651;DHT22;45954;49.768;8.636;2022-07-23T07:15:33;22.00;97.80
59651;DHT22;45954;49.768;8.636;2022-07-23T07:17:59;22.30;97.80
59651;DHT22;45954;49.768;8.636;2022-07-23T07:20:25;22.50;97.30
59651;DHT22;45954;49.768;8.636;2022-07-23T07:22:51;22.60;97.10
59651;DHT22;45954;49.768;8.636;2022-07-23T07:25:17;22.70;96.30
59651;DHT22;45954;49.768;8.636;2022-07-23T07:27:43;22.80;96.70
59651;DHT22;45954;49.768;8.636;2022-07-23T07:30:12;23.00;96.20
59651;DHT22;45954;49.768;8.636;2022-07-23T07:32:39;23.00;96.30
59651;DHT22;45954;49.768;8.636;2022-07-23T07:35:06;22.50;96.80
59651;DHT22;45954;49.768;8.636;2022-07-23T07:37:32;22.40;96.80
59651;DHT22;45954;49.768;8.636;2022-07-23T07:39:58;22.40;96.60
59651;DHT22;45954;49.768;8.636;2022-07-23T07:42:24;22.40;96.50
59651;DHT22;45954;49.768;8.636;2022-07-23T07:44:50;22.30;96.50
59651;DHT22;45954;49.768;8.636;2022-07-23T07:47:16;22.60;96.20
59651;DHT22;45954;49.768;8.636;2022-07-23T07:49:42;22.90;96.30
59651;DHT22;45954;49.768;8.636;2022-07-23T07:52:09;22.90;96.00
59651;DHT22;45954;49.768;8.636;2022-07-23T07:54:36;22.80;95.70
59651;DHT22;45954;49.768;8.636;2022-07-23T07:57:02;22.60;95.70
59651;DHT22;45954;49.768;8.636;2022-07-23T07:59:28;22.70;96.10
59651;DHT22;45954;49.768;8.636;2022-07-23T08:01:54;22.90;95.90
59651;DHT22;45954;49.768;8.636;2022-07-23T08:04:21;22.90;95.50
59651;DHT22;45954;49.768;8.636;2022-07-23T08:06:47;22.90;95.70
59651;DHT22;45954;49.768;8.636;2022-07-23T08:09:12;22.90;95.40
59651;DHT22;45954;49.768;8.636;2022-07-23T08:11:38;22.70;95.90
59651;DHT22;45954;49.768;8.636;2022-07-23T08:14:04;22.50;96.70
59651;DHT22;45954;49.768;8.636;2022-07-23T08:16:30;22.80;96.80
59651;DHT22;45954;49.768;8.636;2022-07-23T08:18:56;23.00;96.50
59651;DHT22;45954;49.768;8.636;2022-07-23T08:21:22;23.10;95.50
59651;DHT22;45954;49.768;8.636;2022-07-23T08:23:48;23.10;94.80
59651;DHT22;45954;49.768;8.636;2022-07-23T08:26:14;23.10;95.10
59651;DHT22;45954;49.768;8.636;2022-07-23T08:28:40;23.30;95.10
59651;DHT22;45954;49.768;8.636;2022-07-23T08:31:06;23.50;95.20
59651;DHT22;45954;49.768;8.636;2022-07-23T08:33:32;23.70;94.90
59651;DHT22;45954;49.768;8.636;2022-07-23T08:35:58;23.70;94.20
59651;DHT22;45954;49.768;8.636;2022-07-23T08:38:25;23.30;93.80
59651;DHT22;45954;49.768;8.636;2022-07-23T08:40:53;23.30;93.90
59651;DHT22;45954;49.768;8.636;2022-07-23T08:43:37;23.30;94.00
59651;DHT22;45954;49.768;8.636;2022-07-23T08:46:04;23.40;94.00
59651;DHT22;45954;49.768;8.636;2022-07-23T08:48:33;23.20;94.00
59651;DHT22;45954;49.768;8.636;2022-07-23T08:51:02;23.10;93.70
59651;DHT22;45954;49.768;8.636;2022-07-23T08:53:30;23.50;93.60
59651;DHT22;45954;49.768;8.636;2022-07-23T08:56:00;24.00;93.90
59651;DHT22;45954;49.768;8.636;2022-07-23T08:58:30;24.10;93.90
59651;DHT22;45954;49.768;8.636;2022-07-23T09:00:57;24.50;93.10
59651;DHT22;45954;49.768;8.636;2022-07-23T09:03:32;24.80;92.40
59651;DHT22;45954;49.768;8.636;2022-07-23T09:06:00;24.80;92.40
59651;DHT22;45954;49.768;8.636;2022-07-23T09:08:41;25.10;92.70
59651;DHT22;45954;49.768;8.636;2022-07-23T09:52:01;25.70;91.00
59651;DHT22;45954;49.768;8.636;2022-07-23T09:54:34;26.10;90.40
59651;DHT22;45954;49.768;8.636;2022-07-23T09:57:12;26.40;89.50
59651;DHT22;45954;49.768;8.636;2022-07-23T09:59:44;26.80;89.90
59651;DHT22;45954;49.768;8.636;2022-07-23T10:02:13;27.10;88.30
59651;DHT22;45954;49.768;8.636;2022-07-23T10:04:40;27.00;89.10
59651;DHT22;45954;49.768;8.636;2022-07-23T10:07:09;27.10;88.00
59651;DHT22;45954;49.768;8.636;2022-07-23T10:09:38;26.80;87.00
59651;DHT22;45954;49.768;8.636;2022-07-23T10:12:11;26.60;87.50
59651;DHT22;45954;49.768;8.636;2022-07-23T10:14:47;25.90;88.10
59651;DHT22;45954;49.768;8.636;2022-07-23T10:17:14;25.60;88.70
59651;DHT22;45954;49.768;8.636;2022-07-23T10:19:40;26.30;89.20
59651;DHT22;45954;49.768;8.636;2022-07-23T10:22:13;26.50;86.60
59651;DHT22;45954;49.768;8.636;2022-07-23T10:31:21;26.20;87.60
59651;DHT22;45954;49.768;8.636;2022-07-23T10:37:01;26.50;87.10
59651;DHT22;45954;49.768;8.636;2022-07-23T10:39:33;26.80;86.80
59651;DHT22;45954;49.768;8.636;2022-07-23T10:42:10;27.20;87.00
59651;DHT22;45954;49.768;8.636;2022-07-23T10:44:47;27.30;84.80
59651;DHT22;45954;49.768;8.636;2022-07-23T10:47:28;27.00;84.80
59651;DHT22;45954;49.768;8.636;2022-07-23T10:50:26;26.60;84.90
59651;DHT22;45954;49.768;8.636;2022-07-23T10:53:17;26.60;85.00
59651;DHT22;45954;49.768;8.636;2022-07-23T10:55:52;27.00;84.60
59651;DHT22;45954;49.768;8.636;2022-07-23T10:58:21;27.40;83.50
59651;DHT22;45954;49.768;8.636;2022-07-23T11:00:49;27.10;81.60
59651;DHT22;45954;49.768;8.636;2022-07-23T11:03:34;26.90;83.00
59651;DHT22;45954;49.768;8.636;2022-07-23T11:06:05;27.10;83.20
59651;DHT22;45954;49.768;8.636;2022-07-23T11:08:31;26.50;83.40
59651;DHT22;45954;49.768;8.636;2022-07-23T11:32:27;28.20;81.00
59651;DHT22;45954;49.768;8.636;2022-07-23T11:34:55;28.70;80.70
59651;DHT22;45954;49.768;8.636;2022-07-23T11:37:38;29.30;79.90
59651;DHT22;45954;49.768;8.636;2022-07-23T11:40:10;28.50;79.80
59651;DHT22;45954;49.768;8.636;2022-07-23T11:43:01;28.30;79.70
59651;DHT22;45954;49.768;8.636;2022-07-23T11:45:37;28.20;78.80
59651;DHT22;45954;49.768;8.636;2022-07-23T11:48:08;28.50;78.70
59651;DHT22;45954;49.768;8.636;2022-07-23T11:50:36;28.80;79.10
59651;DHT22;45954;49.768;8.636;2022-07-23T11:53:03;29.00;77.50
59651;DHT22;45954;49.768;8.636;2022-07-23T11:55:29;29.40;78.60
59651;DHT22;45954;49.768;8.636;2022-07-23T11:57:55;28.80;76.30
59651;DHT22;45954;49.768;8.636;2022-07-23T12:00:28;28.70;76.30
59651;DHT22;45954;49.768;8.636;2022-07-23T12:03:00;28.60;78.80
59651;DHT22;45954;49.768;8.636;2022-07-23T12:05:30;29.10;77.30
59651;DHT22;45954;49.768;8.636;2022-07-23T12:08:00;29.20;77.10
59651;DHT22;45954;49.768;8.636;2022-07-23T12:10:41;29.00;76.50
59651;DHT22;45954;49.768;8.636;2022-07-23T12:13:14;29.20;76.90
59651;DHT22;45954;49.768;8.636;2022-07-23T12:15:48;28.50;77.10
59651;DHT22;45954;49.768;8.636;2022-07-23T12:18:24;28.90;76.90
59651;DHT22;45954;49.768;8.636;2022-07-23T12:20:54;28.90;76.00
59651;DHT22;45954;49.768;8.636;2022-07-23T12:23:23;28.80;76.40
59651;DHT22;45954;49.768;8.636;2022-07-23T12:25:51;28.30;76.70
59651;DHT22;45954;49.768;8.636;2022-07-23T12:28:21;28.30;76.50
59651;DHT22;45954;49.768;8.636;2022-07-23T12:30:51;28.00;77.10
59651;DHT22;45954;49.768;8.636;2022-07-23T12:33:25;27.90;76.50
59651;DHT22;45954;49.768;8.636;2022-07-23T12:35:55;28.20;76.20
59651;DHT22;45954;49.768;8.636;2022-07-23T12:38:25;27.90;77.60
59651;DHT22;45954;49.768;8.636;2022-07-23T12:43:33;28.70;74.80
59651;DHT22;45954;49.768;8.636;2022-07-23T12:51:18;29.30;74.90
59651;DHT22;45954;49.768;8.636;2022-07-23T12:54:08;29.20;74.00
59651;DHT22;45954;49.768;8.636;2022-07-23T12:56:37;28.40;75.60
59651;DHT22;45954;49.768;8.636;2022-07-23T12:59:11;28.40;74.20
59651;DHT22;45954;49.768;8.636;2022-07-23T13:01:43;28.50;74.20
59651;DHT22;45954;49.768;8.636;2022-07-23T13:04:17;28.90;74.40
59651;DHT22;45954;49.768;8.636;2022-07-23T13:09:29;30.30;72.30
59651;DHT22;45954;49.768;8.636;2022-07-23T13:11:57;29.80;73.50
59651;DHT22;45954;49.768;8.636;2022-07-23T13:14:25;30.20;72.30
59651;DHT22;45954;49.768;8.636;2022-07-23T13:16:53;30.40;73.20
59651;DHT22;45954;49.768;8.636;2022-07-23T13:19:20;30.40;71.80
59651;DHT22;45954;49.768;8.636;2022-07-23T13:21:47;29.50;72.00
59651;DHT22;45954;49.768;8.636;2022-07-23T13:24:13;29.50;71.70
59651;DHT22;45954;49.768;8.636;2022-07-23T13:26:40;29.80;73.10
59651;DHT22;45954;49.768;8.636;2022-07-23T13:29:07;30.40;71.50
59651;DHT22;45954;49.768;8.636;2022-07-23T13:31:33;30.50;71.10
59651;DHT22;45954;49.768;8.636;2022-07-23T13:34:02;30.20;71.10
59651;DHT22;45954;49.768;8.636;2022-07-23T13:36:28;30.10;71.30
59651;DHT22;45954;49.768;8.636;2022-07-23T13:38:54;31.10;70.80
59651;DHT22;45954;49.768;8.636;2022-07-23T13:41:20;31.50;69.10
59651;DHT22;45954;49.768;8.636;2022-07-23T13:43:46;30.60;68.20
59651;DHT22;45954;49.768;8.636;2022-07-23T13:46:12;30.20;67.90
59651;DHT22;45954;49.768;8.636;2022-07-23T13:48:38;30.20;69.20
59651;DHT22;45954;49.768;8.636;2022-07-23T13:51:04;30.80;68.40
59651;DHT22;45954;49.768;8.636;2022-07-23T13:53:30;31.60;68.20
59651;DHT22;45954;49.768;8.636;2022-07-23T13:55:56;31.90;67.30
59651;DHT22;45954;49.768;8.636;2022-07-23T13:58:23;30.90;67.20
59651;DHT22;45954;49.768;8.636;2022-07-23T14:00:52;30.50;68.70
59651;DHT22;45954;49.768;8.636;2022-07-23T14:03:18;30.30;69.50
59651;DHT22;45954;49.768;8.636;2022-07-23T14:05:45;29.70;69.50
59651;DHT22;45954;49.768;8.636;2022-07-23T14:08:11;29.50;69.50
59651;DHT22;45954;49.768;8.636;2022-07-23T14:10:37;29.50;70.00
59651;DHT22;45954;49.768;8.636;2022-07-23T14:13:03;29.90;70.20
59651;DHT22;45954;49.768;8.636;2022-07-23T14:15:31;30.90;68.70
59651;DHT22;45954;49.768;8.636;2022-07-23T14:17:59;31.10;66.40
59651;DHT22;45954;49.768;8.636;2022-07-23T14:20:25;31.80;65.20
59651;DHT22;45954;49.768;8.636;2022-07-23T14:22:51;31.80;63.00
59651;DHT22;45954;49.768;8.636;2022-07-23T14:25:18;32.10;62.70
59651;DHT22;45954;49.768;8.636;2022-07-23T14:27:44;32.10;61.70
59651;DHT22;45954;49.768;8.636;2022-07-23T14:30:11;32.30;61.60
59651;DHT22;45954;49.768;8.636;2022-07-23T14:32:38;31.90;61.00
59651;DHT22;45954;49.768;8.636;2022-07-23T14:35:05;31.30;61.00
59651;DHT22;45954;49.768;8.636;2022-07-23T14:37:32;31.50;61.00
59651;DHT22;45954;49.768;8.636;2022-07-23T14:39:59;31.50;62.60
59651;DHT22;45954;49.768;8.636;2022-07-23T14:42:25;32.30;61.90
59651;DHT22;45954;49.768;8.636;2022-07-23T14:44:51;32.90;62.10
59651;DHT22;45954;49.768;8.636;2022-07-23T14:47:17;33.20;60.40
59651;DHT22;45954;49.768;8.636;2022-07-23T14:49:44;33.60;61.00
59651;DHT22;45954;49.768;8.636;2022-07-23T14:52:09;33.80;59.40
59651;DHT22;45954;49.768;8.636;2022-07-23T14:54:35;34.40;59.40
59651;DHT22;45954;49.768;8.636;2022-07-23T14:57:03;33.80;58.00
59651;DHT22;45954;49.768;8.636;2022-07-23T14:59:30;33.50;60.70
59651;DHT22;45954;49.768;8.636;2022-07-23T15:01:56;33.90;59.70
59651;DHT22;45954;49.768;8.636;2022-07-23T15:04:24;34.00;59.40
59651;DHT22;45954;49.768;8.636;2022-07-23T15:06:50;34.30;58.60
59651;DHT22;45954;49.768;8.636;2022-07-23T15:09:16;34.30;58.00
59651;DHT22;45954;49.768;8.636;2022-07-23T15:11:42;34.30;58.60
59651;DHT22;45954;49.768;8.636;2022-07-23T15:14:09;34.60;58.10
59651;DHT22;45954;49.768;8.636;2022-07-23T15:16:36;34.90;56.80
59651;DHT22;45954;49.768;8.636;2022-07-23T15:19:03;34.90;55.80
59651;DHT22;45954;49.768;8.636;2022-07-23T15:21:30;33.50;56.50
59651;DHT22;45954;49.768;8.636;2022-07-23T15:23:56;32.90;56.80
59651;DHT22;45954;49.768;8.636;2022-07-23T15:26:27;32.40;56.80
59651;DHT22;45954;49.768;8.636;2022-07-23T15:28:54;32.50;56.70
59651;DHT22;45954;49.768;8.636;2022-07-23T15:31:21;33.20;56.60
59651;DHT22;45954;49.768;8.636;2022-07-23T15:33:47;32.90;56.70
59651;DHT22;45954;49.768;8.636;2022-07-23T15:36:12;32.60;56.40
59651;DHT22;45954;49.768;8.636;2022-07-23T15:38:39;32.80;56.60
59651;DHT22;45954;49.768;8.636;2022-07-23T15:41:05;32.10;56.60
59651;DHT22;45954;49.768;8.636;2022-07-23T15:43:31;32.10;56.90
59651;DHT22;45954;49.768;8.636;2022-07-23T15:45:59;31.60;57.60
59651;DHT22;45954;49.768;8.636;2022-07-23T15:48:25;31.50;57.30
59651;DHT22;45954;49.768;8.636;2022-07-23T15:50:51;31.50;56.70
59651;DHT22;45954;49.768;8.636;2022-07-23T15:53:18;31.80;57.50
59651;DHT22;45954;49.768;8.636;2022-07-23T15:55:44;32.50;56.20
59651;DHT22;45954;49.768;8.636;2022-07-23T15:58:11;31.90;56.30
59651;DHT22;45954;49.768;8.636;2022-07-23T16:00:37;31.50;57.30
59651;DHT22;45954;49.768;8.636;2022-07-23T16:03:03;31.00;57.30
59651;DHT22;45954;49.768;8.636;2022-07-23T16:05:29;30.80;57.20
59651;DHT22;45954;49.768;8.636;2022-07-23T16:07:55;31.50;57.70
59651;DHT22;45954;49.768;8.636;2022-07-23T16:10:21;32.20;57.60
59651;DHT22;45954;49.768;8.636;2022-07-23T16:12:48;32.40;56.30
59651;DHT22;45954;49.768;8.636;2022-07-23T16:15:14;32.60;55.10
59651;DHT22;45954;49.768;8.636;2022-07-23T16:17:40;32.30;55.30
59651;DHT22;45954;49.768;8.636;2022-07-23T16:20:07;31.40;56.40
59651;DHT22;45954;49.768;8.636;2022-07-23T16:22:34;31.00;56.40
59651;DHT22;45954;49.768;8.636;2022-07-23T16:25:01;31.50;57.70
59651;DHT22;45954;49.768;8.636;2022-07-23T16:27:28;32.10;55.10
59651;DHT22;45954;49.768;8.636;2022-07-23T16:29:53;31.60;56.40
59651;DHT22;45954;49.768;8.636;2022-07-23T16:32:19;32.30;56.50
59651;DHT22;45954;49.768;8.636;2022-07-23T16:34:45;32.10;55.70
59651;DHT22;45954;49.768;8.636;2022-07-23T16:37:11;31.70;56.30
59651;DHT22;45954;49.768;8.636;2022-07-23T16:39:37;31.70;55.80
59651;DHT22;45954;49.768;8.636;2022-07-23T16:42:04;31.60;56.30
59651;DHT22;45954;49.768;8.636;2022-07-23T16:44:30;31.20;57.80
59651;DHT22;45954;49.768;8.636;2022-07-23T16:46:56;31.80;57.20
59651;DHT22;45954;49.768;8.636;2022-07-23T16:49:22;31.90;56.70
59651;DHT22;45954;49.768;8.636;2022-07-23T16:51:48;31.70;56.30
59651;DHT22;45954;49.768;8.636;2022-07-23T16:54:13;31.10;57.20